createdAt,value
2018-09-13T00:01:21.625Z,1.37
2018-09-13T00:04:08.323Z,1.60
2018-09-13T00:06:37.881Z,1.77
2018-09-13T00:09:08.351Z,1.57
2018-09-13T00:11:37.481Z,1.70
2018-09-13T00:14:06.669Z,1.80
2018-09-13T00:16:56.512Z,1.73
2018-09-13T00:19:25.756Z,1.70
2018-09-13T00:21:56.384Z,2.20
2018-09-13T00:24:28.849Z,1.60
2018-09-13T00:27:07.602Z,1.60
2018-09-13T00:29:36.531Z,1.60
2018-09-13T00:32:07.100Z,1.60
2018-09-13T00:37:34.854Z,1.50
2018-09-13T00:40:05.340Z,1.43
2018-09-13T00:45:26.971Z,2.20
2018-09-13T00:47:59.454Z,1.53
2018-09-13T00:50:28.335Z,2.00
2018-09-13T00:53:20.574Z,1.77
2018-09-13T00:55:49.806Z,1.80
2018-09-13T00:58:18.705Z,1.93
2018-09-13T01:00:47.464Z,1.90
2018-09-13T01:03:16.116Z,1.70
2018-09-13T01:05:45.093Z,1.30
2018-09-13T01:08:14.383Z,1.67
2018-09-13T01:10:43.382Z,1.90
2018-09-13T01:13:12.217Z,2.03
2018-09-13T01:15:44.835Z,1.57
2018-09-13T01:21:00.694Z,1.60
2018-09-13T01:23:29.401Z,1.60
2018-09-13T01:26:21.972Z,1.73
2018-09-13T01:28:50.584Z,1.63
2018-09-13T01:31:24.866Z,1.83
2018-09-13T01:33:57.951Z,1.47
2018-09-13T01:36:41.349Z,1.73
2018-09-13T01:39:10.758Z,1.80
2018-09-13T01:41:39.773Z,1.87
2018-09-13T01:44:08.766Z,2.10
2018-09-13T01:46:41.629Z,1.67
2018-09-13T01:49:10.453Z,1.63
2018-09-13T01:51:39.494Z,1.80
2018-09-13T01:54:19.798Z,1.90
2018-09-13T01:56:48.483Z,1.80
2018-09-13T01:59:17.426Z,2.37
2018-09-13T02:01:46.174Z,2.40
2018-09-13T02:04:15.311Z,2.30
2018-09-13T02:06:44.181Z,2.03
2018-09-13T02:09:12.748Z,2.60
2018-09-13T02:11:42.150Z,2.10
2018-09-13T02:14:11.185Z,2.43
2018-09-13T02:16:39.865Z,3.00
2018-09-13T02:19:08.580Z,2.40
2018-09-13T02:21:37.451Z,2.90
2018-09-13T02:24:06.270Z,2.70
2018-09-13T02:26:34.926Z,2.53
2018-09-13T02:29:03.860Z,2.90
2018-09-13T02:31:40.205Z,2.43
2018-09-13T02:34:08.916Z,2.90
2018-09-13T02:36:55.298Z,2.67
2018-09-13T02:39:27.136Z,2.97
2018-09-13T02:41:56.024Z,3.10
2018-09-13T02:44:25.130Z,3.13
2018-09-13T02:46:53.781Z,2.70
2018-09-13T02:49:22.777Z,3.10
2018-09-13T02:51:51.424Z,2.97
2018-09-13T02:54:20.506Z,3.63
2018-09-13T02:56:49.124Z,2.60
2018-09-13T02:59:18.121Z,2.90
2018-09-13T03:04:39.522Z,3.13
2018-09-13T03:07:17.999Z,3.07
2018-09-13T03:09:47.112Z,3.40
2018-09-13T03:12:19.676Z,3.20
2018-09-13T03:14:48.392Z,3.10
2018-09-13T03:17:23.578Z,3.50
2018-09-13T03:22:44.915Z,3.60
2018-09-13T03:25:13.397Z,3.50
2018-09-13T03:27:42.626Z,3.10
2018-09-13T03:30:20.946Z,3.10
2018-09-13T03:32:50.234Z,3.63
2018-09-13T03:35:19.056Z,2.93
2018-09-13T03:37:47.890Z,3.50
2018-09-13T03:40:18.293Z,2.50
2018-09-13T03:42:49.519Z,2.70
2018-09-13T03:45:18.228Z,2.63
2018-09-13T03:47:47.048Z,2.87
2018-09-13T03:50:15.688Z,2.63
2018-09-13T03:52:44.868Z,2.70
2018-09-13T03:55:14.020Z,2.80
2018-09-13T03:57:42.976Z,2.60
2018-09-13T04:00:11.804Z,2.80
2018-09-13T04:02:41.012Z,2.70
2018-09-13T04:05:09.918Z,2.50
2018-09-13T04:07:40.488Z,2.90
2018-09-13T04:10:09.278Z,2.30
2018-09-13T04:12:38.073Z,3.20
2018-09-13T04:15:07.133Z,2.83
2018-09-13T04:20:29.090Z,2.43
2018-09-13T04:23:01.747Z,2.50
2018-09-13T04:25:30.500Z,2.70
2018-09-13T04:27:59.397Z,2.23
2018-09-13T04:30:39.486Z,2.60
2018-09-13T04:33:13.274Z,2.53
2018-09-13T04:38:35.563Z,2.23
2018-09-13T04:41:06.533Z,2.27
2018-09-13T04:43:35.794Z,2.40
2018-09-13T04:46:05.046Z,2.53
2018-09-13T04:48:34.025Z,2.40
2018-09-13T04:51:03.154Z,2.37
2018-09-13T04:53:32.202Z,2.00
2018-09-13T04:56:05.064Z,2.50
2018-09-13T04:58:33.845Z,2.40
2018-09-13T05:01:03.225Z,2.73
2018-09-13T05:03:32.432Z,2.10
2018-09-13T05:06:00.941Z,3.30
2018-09-13T05:08:44.736Z,2.10
2018-09-13T05:11:13.983Z,2.77
2018-09-13T05:13:42.959Z,2.30
2018-09-13T05:16:12.289Z,2.67
2018-09-13T05:18:41.218Z,2.30
2018-09-13T05:21:10.249Z,2.20
2018-09-13T05:23:39.782Z,2.33
2018-09-13T05:26:09.351Z,2.30
2018-09-13T05:28:38.646Z,1.97
2018-09-13T05:31:15.588Z,3.00
2018-09-13T05:33:46.158Z,2.40
2018-09-13T05:36:14.939Z,2.57
2018-09-13T05:38:43.758Z,2.30
2018-09-13T05:41:13.274Z,2.90
2018-09-13T05:43:42.429Z,2.83
2018-09-13T05:46:11.052Z,2.83
2018-09-13T05:48:40.772Z,3.30
2018-09-13T05:51:09.904Z,3.43
2018-09-13T05:53:39.083Z,3.47
2018-09-13T05:56:08.009Z,3.50
2018-09-13T05:58:43.831Z,3.17
2018-09-13T06:01:12.685Z,3.00
2018-09-13T06:03:42.983Z,2.77
2018-09-13T06:06:12.154Z,3.00
2018-09-13T06:08:45.689Z,2.67
2018-09-13T06:11:14.691Z,2.63
2018-09-13T06:13:48.600Z,2.70
2018-09-13T06:16:53.640Z,3.47
2018-09-13T06:19:25.486Z,2.40
2018-09-13T06:21:54.235Z,2.50
2018-09-13T06:24:22.797Z,2.70
2018-09-13T06:26:51.465Z,2.73
2018-09-13T06:29:20.037Z,2.77
2018-09-13T06:31:48.652Z,2.80
2018-09-13T06:34:17.357Z,2.83
2018-09-13T06:36:46.118Z,2.93
2018-09-13T06:39:14.702Z,3.27
2018-09-13T06:41:43.653Z,2.50
2018-09-13T06:44:12.349Z,3.30
2018-09-13T06:46:41.019Z,2.83
2018-09-13T06:49:12.706Z,2.63
2018-09-13T06:54:53.265Z,3.70
2018-09-13T06:57:22.120Z,3.40
2018-09-13T06:59:50.880Z,3.10
2018-09-13T07:02:21.394Z,2.93
2018-09-13T07:04:50.368Z,3.20
2018-09-13T07:07:19.092Z,3.87
2018-09-13T07:09:48.248Z,3.57
2018-09-13T07:12:17.515Z,3.70
2018-09-13T07:14:46.008Z,3.40
2018-09-13T07:17:14.807Z,3.67
2018-09-13T07:19:44.712Z,2.87
2018-09-13T07:22:13.708Z,3.93
2018-09-13T07:24:42.641Z,3.20
2018-09-13T07:27:11.445Z,3.23
2018-09-13T07:29:40.326Z,2.83
2018-09-13T07:32:09.087Z,3.30
2018-09-13T07:34:38.111Z,3.30
2018-09-13T07:37:06.882Z,3.33
2018-09-13T07:39:37.847Z,3.30
2018-09-13T07:42:07.020Z,2.77
2018-09-13T07:44:36.211Z,2.33
2018-09-13T07:47:06.802Z,2.40
2018-09-13T07:49:36.741Z,2.70
2018-09-13T07:52:08.967Z,2.30
2018-09-13T07:54:38.164Z,2.47
2018-09-13T07:57:10.066Z,2.97
2018-09-13T07:59:38.731Z,2.43
2018-09-13T08:02:07.735Z,2.90
2018-09-13T08:04:37.262Z,2.47
2018-09-13T08:07:06.283Z,2.20
2018-09-13T08:09:35.992Z,1.50
2018-09-13T08:12:05.457Z,2.13
2018-09-13T08:14:34.613Z,2.73
2018-09-13T08:17:04.071Z,2.60
2018-09-13T08:19:32.718Z,2.47
2018-09-13T08:22:01.837Z,1.60
2018-09-13T08:24:31.045Z,1.60
2018-09-13T08:26:59.665Z,1.80
2018-09-13T08:29:28.550Z,2.00
2018-09-13T08:31:57.808Z,1.73
2018-09-13T08:34:26.620Z,2.20
2018-09-13T08:36:55.421Z,2.67
2018-09-13T08:39:24.474Z,2.20
2018-09-13T08:41:53.251Z,2.07
2018-09-13T08:44:31.536Z,2.00
2018-09-13T08:47:00.655Z,2.00
2018-09-13T08:49:29.650Z,1.83
2018-09-13T08:51:58.760Z,1.50
2018-09-13T08:54:28.076Z,1.70
2018-09-13T08:56:57.082Z,1.53
2018-09-13T08:59:26.506Z,1.77
2018-09-13T09:01:55.589Z,1.40
2018-09-13T09:04:24.628Z,1.70
2018-09-13T09:06:53.350Z,1.40
2018-09-13T09:09:22.533Z,1.47
2018-09-13T09:11:52.245Z,1.67
2018-09-13T09:14:21.193Z,1.60
2018-09-13T09:16:51.535Z,1.50
2018-09-13T09:19:20.734Z,1.77
2018-09-13T09:21:49.984Z,2.10
2018-09-13T09:24:19.261Z,1.80
2018-09-13T09:26:49.251Z,1.87
2018-09-13T09:29:19.127Z,1.73
2018-09-13T09:31:47.905Z,1.47
2018-09-13T09:34:17.489Z,1.47
2018-09-13T09:36:46.658Z,1.67
2018-09-13T09:39:16.101Z,2.23
2018-09-13T09:41:45.360Z,1.50
2018-09-13T09:44:14.017Z,1.83
2018-09-13T09:46:43.434Z,1.53
2018-09-13T09:49:12.477Z,2.33
2018-09-13T09:51:42.955Z,1.50
2018-09-13T09:54:12.083Z,1.57
2018-09-13T09:56:42.053Z,1.33
2018-09-13T09:59:10.988Z,2.43
2018-09-13T10:01:45.157Z,1.40
2018-09-13T10:04:14.027Z,1.67
2018-09-13T10:06:43.010Z,1.83
2018-09-13T10:09:11.583Z,1.37
2018-09-13T10:11:40.497Z,1.80
2018-09-13T10:14:09.028Z,1.43
2018-09-13T10:16:42.920Z,1.53
2018-09-13T10:19:17.038Z,1.47
2018-09-13T10:21:50.955Z,2.00
2018-09-13T10:24:24.727Z,1.50
2018-09-13T10:26:58.630Z,1.30
2018-09-13T10:29:33.602Z,1.80
2018-09-13T10:32:07.804Z,1.70
2018-09-13T10:34:41.784Z,1.50
2018-09-13T10:37:15.848Z,1.50
2018-09-13T10:39:50.277Z,1.60
2018-09-13T10:42:24.422Z,1.43
2018-09-13T10:44:58.729Z,1.20
2018-09-13T10:47:32.917Z,1.87
2018-09-13T10:50:07.549Z,1.60
2018-09-13T10:52:40.235Z,1.60
2018-09-13T10:55:09.061Z,1.90
2018-09-13T10:57:44.415Z,1.90
2018-09-13T11:00:15.021Z,1.90
2018-09-13T11:02:44.656Z,1.80
2018-09-13T11:05:14.240Z,1.80
2018-09-13T11:07:43.287Z,1.83
2018-09-13T11:10:12.510Z,1.80
2018-09-13T11:12:49.176Z,1.40
2018-09-13T11:15:25.887Z,2.08
2018-09-13T11:17:54.890Z,1.50
2018-09-13T11:20:23.761Z,1.60
2018-09-13T11:22:55.078Z,1.77
2018-09-13T11:25:25.075Z,1.40
2018-09-13T11:27:54.101Z,1.70
2018-09-13T11:30:23.008Z,1.70
2018-09-13T11:32:51.704Z,1.60
2018-09-13T11:35:20.829Z,1.47
2018-09-13T11:37:49.534Z,1.60
2018-09-13T11:40:20.760Z,1.77
2018-09-13T11:42:49.423Z,1.30
2018-09-13T11:45:18.252Z,2.20
2018-09-13T11:47:47.292Z,1.40
2018-09-13T11:50:16.141Z,1.43
2018-09-13T11:52:45.231Z,1.97
2018-09-13T11:55:14.442Z,1.80
2018-09-13T11:57:44.219Z,1.40
2018-09-13T12:00:13.485Z,1.47
2018-09-13T12:02:43.164Z,1.63
2018-09-13T12:05:12.318Z,1.33
2018-09-13T12:07:40.840Z,1.50
2018-09-13T12:10:09.877Z,1.70
2018-09-13T12:12:38.751Z,1.70
2018-09-13T12:15:09.735Z,1.33
2018-09-13T12:17:39.008Z,1.40
2018-09-13T12:20:08.323Z,1.80
2018-09-13T12:22:37.283Z,1.50
2018-09-13T12:25:06.549Z,1.80
2018-09-13T12:27:35.647Z,1.50
2018-09-13T12:30:04.864Z,1.40
2018-09-13T12:32:33.807Z,1.30
2018-09-13T12:35:02.876Z,1.50
2018-09-13T12:37:31.847Z,1.33
2018-09-13T12:40:00.621Z,1.60
2018-09-13T12:42:29.926Z,1.50
2018-09-13T12:44:58.523Z,1.53
2018-09-13T12:47:27.767Z,1.40
2018-09-13T12:49:57.000Z,1.50
2018-09-13T12:52:25.854Z,1.43
2018-09-13T12:54:54.571Z,1.63
2018-09-13T12:57:23.504Z,1.60
2018-09-13T12:59:51.952Z,1.63
2018-09-13T13:02:20.786Z,1.60
2018-09-13T13:04:50.051Z,1.50
2018-09-13T13:07:19.289Z,1.73
2018-09-13T13:09:48.342Z,1.40
2018-09-13T13:12:17.383Z,1.57
2018-09-13T13:14:46.252Z,1.10
2018-09-13T13:17:15.430Z,1.53
2018-09-13T13:19:44.534Z,1.10
2018-09-13T13:22:13.713Z,1.60
2018-09-13T13:24:43.763Z,1.70
2018-09-13T13:27:12.990Z,1.73
2018-09-13T13:29:42.374Z,1.47
2018-09-13T13:32:11.568Z,1.53
2018-09-13T13:34:40.677Z,1.60
2018-09-13T13:37:10.053Z,1.40
2018-09-13T13:39:38.661Z,1.47
2018-09-13T13:42:08.930Z,1.40
2018-09-13T13:44:38.464Z,1.50
2018-09-13T13:47:07.851Z,1.40
2018-09-13T13:49:36.800Z,1.40
2018-09-13T13:52:05.914Z,1.60
2018-09-13T13:54:47.079Z,1.57
2018-09-13T13:57:16.079Z,1.60
2018-09-13T13:59:46.437Z,1.83
2018-09-13T14:02:15.807Z,1.40
2018-09-13T14:04:45.593Z,1.27
2018-09-13T14:07:15.264Z,1.70
2018-09-13T14:09:45.070Z,1.63
2018-09-13T14:12:13.888Z,1.70
2018-09-13T14:14:43.346Z,1.83
2018-09-13T14:17:44.294Z,1.60
2018-09-13T14:20:14.881Z,1.70
2018-09-13T14:23:04.513Z,1.20
2018-09-13T14:25:39.107Z,1.37
2018-09-13T14:28:14.851Z,1.40
2018-09-13T14:30:46.872Z,1.73
2018-09-13T14:33:16.872Z,1.30
2018-09-13T14:35:46.435Z,1.43
2018-09-13T14:38:16.033Z,1.50
2018-09-13T14:40:45.048Z,1.27
2018-09-13T14:43:14.081Z,1.30
2018-09-13T14:45:43.236Z,1.23
2018-09-13T14:48:12.572Z,1.57
2018-09-13T14:50:43.963Z,1.80
2018-09-13T14:53:13.137Z,1.40
2018-09-13T14:55:43.360Z,1.30
2018-09-13T14:58:12.864Z,1.60
2018-09-13T15:00:42.547Z,1.30
2018-09-13T15:03:11.783Z,1.43
2018-09-13T15:05:40.746Z,1.70
2018-09-13T15:08:09.958Z,1.37
2018-09-13T15:10:38.706Z,1.50
2018-09-13T15:13:11.425Z,1.30
2018-09-13T15:15:40.655Z,1.40
2018-09-13T15:18:09.693Z,1.47
2018-09-13T15:20:39.305Z,1.37
2018-09-13T15:23:09.074Z,1.70
2018-09-13T15:25:38.465Z,1.90
2018-09-13T15:28:07.343Z,1.63
2018-09-13T15:30:36.158Z,1.60
2018-09-13T15:33:05.212Z,1.70
2018-09-13T15:35:34.633Z,1.77
2018-09-13T15:38:06.895Z,1.50
2018-09-13T15:40:36.002Z,1.40
2018-09-13T15:43:04.897Z,1.73
2018-09-13T15:45:33.566Z,2.03
2018-09-13T15:48:02.716Z,1.90
2018-09-13T15:50:32.043Z,1.67
2018-09-13T15:53:00.829Z,1.97
2018-09-13T15:55:29.724Z,1.43
2018-09-13T15:57:58.335Z,1.57
2018-09-13T16:00:27.216Z,1.80
2018-09-13T16:02:56.189Z,1.70
2018-09-13T16:05:25.417Z,1.70
2018-09-13T16:07:54.096Z,1.67
2018-09-13T16:10:23.070Z,1.87
2018-09-13T16:12:51.817Z,2.10
2018-09-13T16:15:20.637Z,1.97
2018-09-13T16:17:49.999Z,1.90
2018-09-13T16:20:18.806Z,1.80
2018-09-13T16:22:47.782Z,2.23
2018-09-13T16:25:16.552Z,1.93
2018-09-13T16:27:45.478Z,1.43
2018-09-13T16:30:14.973Z,1.83
2018-09-13T16:32:44.139Z,1.73
2018-09-13T16:35:13.376Z,2.00
2018-09-13T16:37:47.684Z,1.77
2018-09-13T16:40:21.601Z,1.47
2018-09-13T16:42:56.062Z,2.00
2018-09-13T16:45:29.312Z,2.10
2018-09-13T16:48:00.438Z,1.60
2018-09-13T16:50:30.329Z,1.87
2018-09-13T16:52:59.061Z,1.63
2018-09-13T16:55:28.024Z,2.07
2018-09-13T16:57:56.982Z,1.90
2018-09-13T17:00:27.210Z,2.07
2018-09-13T17:02:56.780Z,1.50
2018-09-13T17:05:25.743Z,2.20
2018-09-13T17:07:54.986Z,2.40
2018-09-13T17:10:24.199Z,1.67
2018-09-13T17:13:25.007Z,1.57
2018-09-13T17:15:54.693Z,1.97
2018-09-13T17:18:23.893Z,1.93
2018-09-13T17:20:53.103Z,1.50
2018-09-13T17:23:22.402Z,1.60
2018-09-13T17:25:51.470Z,1.67
2018-09-13T17:28:20.303Z,1.33
2018-09-13T17:30:49.841Z,1.70
2018-09-13T17:33:19.628Z,1.57
2018-09-13T17:35:49.778Z,1.50
2018-09-13T17:38:19.083Z,1.50
2018-09-13T17:40:48.672Z,1.73
2018-09-13T17:43:17.816Z,1.70
2018-09-13T17:45:46.947Z,1.47
2018-09-13T17:48:16.127Z,1.77
2018-09-13T17:50:45.381Z,1.70
2018-09-13T17:53:15.094Z,1.23
2018-09-13T17:55:44.694Z,1.30
2018-09-13T17:58:14.170Z,1.33
2018-09-13T18:00:43.780Z,1.40
2018-09-13T18:03:14.591Z,1.40
2018-09-13T18:05:44.177Z,1.47
2018-09-13T18:08:13.223Z,1.47
2018-09-13T18:10:43.029Z,1.30
2018-09-13T18:13:12.652Z,1.20
2018-09-13T18:15:42.048Z,1.20
2018-09-13T18:18:11.341Z,1.50
2018-09-13T18:20:40.537Z,1.60
2018-09-13T18:23:09.497Z,1.57
2018-09-13T18:25:38.163Z,1.40
2018-09-13T18:28:07.690Z,1.73
2018-09-13T18:30:36.791Z,1.67
2018-09-13T18:33:05.988Z,1.80
2018-09-13T18:35:35.016Z,1.50
2018-09-13T18:38:04.158Z,1.20
2018-09-13T18:40:33.480Z,1.40
2018-09-13T18:43:02.450Z,1.50
2018-09-13T18:45:31.673Z,1.57
2018-09-13T18:48:00.860Z,1.47
2018-09-13T18:50:30.851Z,1.70
2018-09-13T18:53:01.025Z,1.40
2018-09-13T18:58:23.415Z,1.43
2018-09-13T19:00:57.301Z,1.50
2018-09-13T19:03:26.484Z,1.90
2018-09-13T19:05:59.012Z,1.50
2018-09-13T19:08:30.352Z,1.40
2018-09-13T19:11:02.868Z,1.77
2018-09-13T19:13:36.563Z,1.50
2018-09-13T19:16:07.950Z,1.80
2018-09-13T19:18:39.590Z,2.30
2018-09-13T19:21:10.615Z,1.97
2018-09-13T19:23:41.592Z,1.60
2018-09-13T19:26:12.596Z,2.00
2018-09-13T19:28:42.201Z,1.57
2018-09-13T19:31:13.525Z,1.90
2018-09-13T19:33:44.442Z,1.57
2018-09-13T19:36:14.357Z,1.80
2018-09-13T19:38:45.065Z,1.67
2018-09-13T19:41:15.071Z,2.27
2018-09-13T19:43:45.527Z,2.27
2018-09-13T19:46:19.801Z,1.60
2018-09-13T19:48:53.498Z,5.80
2018-09-13T19:51:25.077Z,7.20
2018-09-13T19:53:57.530Z,5.70
2018-09-13T19:56:28.064Z,5.60
2018-09-13T19:58:59.658Z,5.13
2018-09-13T20:01:40.114Z,4.30
2018-09-13T20:04:12.132Z,5.67
2018-09-13T20:06:43.264Z,4.47
2018-09-13T20:09:15.331Z,3.57
2018-09-13T20:11:47.138Z,4.17
2018-09-13T20:17:13.837Z,3.27
2018-09-13T20:19:44.240Z,2.93
2018-09-13T20:22:13.792Z,2.53
2018-09-13T20:25:06.910Z,2.67
2018-09-13T20:27:36.469Z,2.20
2018-09-13T20:30:06.606Z,2.50
2018-09-13T20:32:36.437Z,2.00
2018-09-13T20:35:06.110Z,1.90
2018-09-13T20:37:35.605Z,2.17
2018-09-13T20:40:05.450Z,2.13
2018-09-13T20:42:34.760Z,2.30
2018-09-13T20:45:04.653Z,2.23
2018-09-13T20:47:33.672Z,2.27
2018-09-13T20:50:03.935Z,1.90
2018-09-13T20:52:32.762Z,2.73
2018-09-13T20:55:02.036Z,2.27
2018-09-13T20:57:30.750Z,2.80
2018-09-13T21:00:01.838Z,2.37
2018-09-13T21:02:31.001Z,2.57
2018-09-13T21:05:01.627Z,2.30
2018-09-13T21:07:31.838Z,2.40
2018-09-13T21:10:01.728Z,2.70
2018-09-13T21:12:31.303Z,2.20
2018-09-13T21:15:00.335Z,2.23
2018-09-13T21:17:29.216Z,3.17
2018-09-13T21:19:58.293Z,2.50
2018-09-13T21:22:27.601Z,1.97
2018-09-13T21:24:57.503Z,2.30
2018-09-13T21:27:26.830Z,2.37
2018-09-13T21:29:56.345Z,2.40
2018-09-13T21:32:27.278Z,2.50
2018-09-13T21:34:56.251Z,3.10
2018-09-13T21:37:25.803Z,2.70
2018-09-13T21:39:54.543Z,2.37
2018-09-13T21:42:24.335Z,2.53
2018-09-13T21:44:53.816Z,2.73
2018-09-13T21:47:23.662Z,2.83
2018-09-13T21:49:53.071Z,2.90
2018-09-13T21:52:22.284Z,3.10
2018-09-13T21:54:52.015Z,2.70
2018-09-13T21:57:21.661Z,2.70
2018-09-13T21:59:51.123Z,3.30
2018-09-13T22:02:20.098Z,2.97
2018-09-13T22:04:49.615Z,2.67
2018-09-13T22:07:18.807Z,2.70
2018-09-13T22:09:47.953Z,2.50
2018-09-13T22:12:17.375Z,2.40
2018-09-13T22:14:46.683Z,2.80
2018-09-13T22:17:15.989Z,2.83
2018-09-13T22:19:46.317Z,3.37
2018-09-13T22:22:15.357Z,2.67
2018-09-13T22:24:45.388Z,2.53
2018-09-13T22:27:14.393Z,3.10
2018-09-13T22:29:43.641Z,2.97
2018-09-13T22:32:13.010Z,3.00
2018-09-13T22:34:42.257Z,3.13
2018-09-13T22:37:11.625Z,2.37
2018-09-13T22:39:40.713Z,2.50
2018-09-13T22:42:09.988Z,3.83
2018-09-13T22:44:40.567Z,3.00
2018-09-13T22:47:10.730Z,3.40
2018-09-13T22:49:40.790Z,3.50
2018-09-13T22:52:10.010Z,3.57
2018-09-13T22:54:38.676Z,3.87
2018-09-13T22:57:07.981Z,3.83
2018-09-13T22:59:53.417Z,4.40
2018-09-13T23:02:22.959Z,4.90
2018-09-13T23:04:52.426Z,4.90
2018-09-13T23:07:21.373Z,4.40
2018-09-13T23:09:50.583Z,4.20
2018-09-13T23:12:21.446Z,4.37
2018-09-13T23:14:50.052Z,3.73
2018-09-13T23:17:19.421Z,4.13
2018-09-13T23:19:48.621Z,4.17
2018-09-13T23:22:17.742Z,3.80
2018-09-13T23:24:46.890Z,4.20
2018-09-13T23:27:15.593Z,4.00
2018-09-13T23:29:45.555Z,4.20
2018-09-13T23:32:14.341Z,4.07
2018-09-13T23:34:43.399Z,4.00
2018-09-13T23:37:12.282Z,3.67
2018-09-13T23:39:41.407Z,4.20
2018-09-13T23:42:10.873Z,4.13
2018-09-13T23:44:39.611Z,3.50
2018-09-13T23:47:08.445Z,4.00
2018-09-13T23:49:37.341Z,3.73
2018-09-13T23:52:06.204Z,4.57
2018-09-13T23:54:35.546Z,3.93
2018-09-13T23:57:04.365Z,3.93
2018-09-13T23:59:33.266Z,4.77
